createdAt,value
2023-03-12T00:02:21.418Z,10.75
2023-03-12T00:04:48.229Z,9.70
2023-03-12T00:07:14.861Z,8.07
2023-03-12T00:09:41.458Z,7.50
2023-03-12T00:12:08.436Z,8.60
2023-03-12T00:14:36.042Z,6.43
2023-03-12T00:17:02.590Z,6.78
2023-03-12T00:19:29.256Z,7.15
2023-03-12T00:21:55.861Z,6.82
2023-03-12T00:24:22.480Z,6.45
2023-03-12T00:26:49.079Z,6.03
2023-03-12T00:29:15.730Z,6.32
2023-03-12T00:31:42.371Z,6.20
2023-03-12T00:34:09.593Z,8.40
2023-03-12T00:36:36.217Z,6.28
2023-03-12T00:39:03.399Z,6.80
2023-03-12T00:41:30.520Z,5.72
2023-03-12T00:43:57.836Z,4.00
2023-03-12T00:46:25.160Z,4.25
2023-03-12T00:48:51.840Z,6.82
2023-03-12T00:51:19.258Z,6.65
2023-03-12T00:53:46.084Z,4.05
2023-03-12T00:56:12.946Z,6.50
2023-03-12T00:58:39.717Z,4.80
2023-03-12T01:01:06.479Z,3.88
2023-03-12T01:03:33.503Z,5.45
2023-03-12T01:06:00.257Z,5.38
2023-03-12T01:08:27.118Z,7.35
2023-03-12T01:10:54.054Z,6.72
2023-03-12T01:13:20.665Z,9.57
2023-03-12T01:15:47.315Z,4.28
2023-03-12T01:18:13.915Z,4.18
2023-03-12T01:20:41.057Z,3.33
2023-03-12T01:23:08.916Z,4.70
2023-03-12T01:25:36.622Z,5.72
2023-03-12T01:28:03.675Z,3.38
2023-03-12T01:30:30.894Z,3.63
2023-03-12T01:32:58.300Z,3.45
2023-03-12T01:35:25.088Z,6.55
2023-03-12T01:37:53.012Z,3.72
2023-03-12T01:40:25.409Z,3.47
2023-03-12T01:42:57.518Z,4.68
2023-03-12T01:46:01.769Z,4.93
2023-03-12T01:48:45.878Z,3.78
2023-03-12T01:51:15.963Z,4.18
2023-03-12T01:53:47.173Z,5.82
2023-03-12T01:56:17.355Z,7.10
2023-03-12T01:58:52.919Z,2.90
2023-03-12T02:01:20.277Z,4.68
2023-03-12T02:03:50.839Z,6.78
2023-03-12T02:06:21.207Z,5.82
2023-03-12T02:08:48.296Z,4.65
2023-03-12T02:11:15.002Z,4.70
2023-03-12T02:13:42.044Z,3.92
2023-03-12T02:16:09.867Z,5.15
2023-03-12T02:18:36.585Z,8.68
2023-03-12T02:21:18.157Z,6.20
2023-03-12T02:23:57.474Z,3.22
2023-03-12T02:26:29.000Z,4.68
2023-03-12T02:28:59.126Z,5.70
2023-03-12T02:31:29.682Z,3.88
2023-03-12T02:34:00.522Z,4.63
2023-03-12T02:36:28.010Z,3.35
2023-03-12T02:38:55.699Z,2.90
2023-03-12T02:41:34.494Z,4.82
2023-03-12T02:46:47.243Z,2.90
2023-03-12T02:49:14.372Z,4.60
2023-03-12T02:51:42.939Z,4.20
2023-03-12T02:54:10.864Z,3.50
2023-03-12T02:56:38.064Z,4.18
2023-03-12T02:59:06.539Z,5.82
2023-03-12T03:01:36.957Z,3.38
2023-03-12T03:04:06.038Z,3.10
2023-03-12T03:06:33.784Z,2.65
2023-03-12T03:09:00.405Z,3.83
2023-03-12T03:11:27.224Z,3.00
2023-03-12T03:13:55.798Z,3.92
2023-03-12T03:16:24.150Z,3.25
2023-03-12T03:18:51.206Z,2.70
2023-03-12T03:21:18.160Z,3.85
2023-03-12T03:23:47.403Z,2.35
2023-03-12T03:26:15.521Z,3.55
2023-03-12T03:31:08.224Z,3.28
2023-03-12T03:33:38.166Z,3.63
2023-03-12T03:36:07.773Z,2.42
2023-03-12T03:38:38.615Z,2.72
2023-03-12T03:41:06.389Z,3.00
2023-03-12T03:43:37.151Z,3.92
2023-03-12T03:46:05.747Z,4.60
2023-03-12T03:48:36.014Z,4.57
2023-03-12T03:51:05.024Z,4.15
2023-03-12T03:53:34.480Z,1.52
2023-03-12T03:56:13.782Z,3.10
2023-03-12T03:58:44.641Z,5.65
2023-03-12T04:01:14.485Z,4.63
2023-03-12T04:03:41.970Z,8.25
2023-03-12T04:06:09.220Z,10.25
2023-03-12T04:08:37.245Z,6.55
2023-03-12T04:11:14.957Z,9.30
2023-03-12T04:13:42.511Z,6.40
2023-03-12T04:16:10.385Z,3.83
2023-03-12T04:18:37.681Z,4.07
2023-03-12T04:21:07.034Z,3.47
2023-03-12T04:23:37.212Z,5.10
2023-03-12T04:26:05.199Z,4.65
2023-03-12T04:28:32.385Z,3.65
2023-03-12T04:31:01.538Z,4.40
2023-03-12T04:33:39.299Z,7.85
2023-03-12T04:36:07.299Z,4.18
2023-03-12T04:38:35.862Z,2.90
2023-03-12T04:41:12.046Z,4.18
2023-03-12T04:43:44.205Z,2.72
2023-03-12T04:46:11.444Z,5.70
2023-03-12T04:48:38.837Z,3.28
2023-03-12T04:51:06.751Z,3.78
2023-03-12T04:53:33.716Z,3.20
2023-03-12T04:56:00.468Z,2.95
2023-03-12T04:58:28.429Z,4.43
2023-03-12T05:00:55.250Z,6.63
2023-03-12T05:03:22.043Z,3.15
2023-03-12T05:05:48.908Z,4.38
2023-03-12T05:08:15.742Z,3.05
2023-03-12T05:10:45.368Z,3.15
2023-03-12T05:13:16.393Z,2.95
2023-03-12T05:15:44.415Z,3.55
2023-03-12T05:18:11.498Z,2.20
2023-03-12T05:20:38.318Z,3.63
2023-03-12T05:23:05.689Z,2.92
2023-03-12T05:25:32.463Z,3.22
2023-03-12T05:27:59.612Z,2.45
2023-03-12T05:30:26.382Z,3.30
2023-03-12T05:32:53.156Z,2.75
2023-03-12T05:35:19.871Z,3.85
2023-03-12T05:37:46.747Z,2.80
2023-03-12T05:40:14.093Z,3.22
2023-03-12T05:42:40.837Z,4.22
2023-03-12T05:45:09.373Z,4.05
2023-03-12T05:47:37.645Z,3.15
2023-03-12T05:50:04.730Z,8.05
2023-03-12T05:52:31.313Z,7.22
2023-03-12T05:54:58.466Z,5.72
2023-03-12T05:57:25.164Z,4.85
2023-03-12T05:59:51.838Z,3.67
2023-03-12T06:02:18.569Z,5.43
2023-03-12T06:04:45.448Z,5.03
2023-03-12T06:07:12.287Z,5.18
2023-03-12T06:09:39.566Z,5.40
2023-03-12T06:12:06.360Z,10.63
2023-03-12T06:14:33.121Z,9.07
2023-03-12T06:17:00.559Z,6.28
2023-03-12T06:19:27.246Z,4.97
2023-03-12T06:21:53.823Z,5.90
2023-03-12T06:24:20.788Z,3.60
2023-03-12T06:26:55.028Z,5.38
2023-03-12T06:29:21.678Z,3.75
2023-03-12T06:31:48.410Z,5.95
2023-03-12T06:34:16.798Z,3.30
2023-03-12T06:36:43.625Z,2.00
2023-03-12T06:39:10.236Z,2.42
2023-03-12T06:41:36.909Z,3.15
2023-03-12T06:44:06.272Z,3.47
2023-03-12T06:46:33.607Z,2.10
2023-03-12T06:49:00.360Z,3.78
2023-03-12T06:51:27.467Z,1.85
2023-03-12T06:53:54.110Z,2.42
2023-03-12T06:56:20.716Z,5.30
2023-03-12T06:58:47.317Z,2.15
2023-03-12T07:01:14.025Z,3.17
2023-03-12T07:03:40.674Z,7.90
2023-03-12T07:06:16.905Z,6.15
2023-03-12T07:08:44.334Z,5.47
2023-03-12T07:11:11.200Z,4.53
2023-03-12T07:13:37.971Z,4.82
2023-03-12T07:16:05.479Z,4.13
2023-03-12T07:18:32.179Z,4.40
2023-03-12T07:20:58.765Z,4.78
2023-03-12T07:23:25.631Z,4.82
2023-03-12T07:25:52.906Z,6.38
2023-03-12T07:28:21.598Z,4.55
2023-03-12T07:30:51.680Z,3.33
2023-03-12T07:33:20.791Z,2.58
2023-03-12T07:35:50.969Z,3.83
2023-03-12T07:38:18.724Z,2.75
2023-03-12T07:40:45.520Z,2.08
2023-03-12T07:43:12.813Z,4.53
2023-03-12T07:45:41.313Z,5.05
2023-03-12T07:48:08.291Z,2.88
2023-03-12T07:50:37.781Z,3.58
2023-03-12T07:53:05.389Z,3.42
2023-03-12T07:55:33.994Z,3.20
2023-03-12T07:58:01.590Z,3.58
2023-03-12T08:00:29.265Z,6.63
2023-03-12T08:02:56.996Z,6.80
2023-03-12T08:05:24.941Z,4.28
2023-03-12T08:07:52.761Z,2.63
2023-03-12T08:10:20.460Z,1.92
2023-03-12T08:12:47.239Z,5.78
2023-03-12T08:15:14.836Z,3.92
2023-03-12T08:17:41.600Z,2.22
2023-03-12T08:20:10.358Z,3.65
2023-03-12T08:22:37.369Z,3.67
2023-03-12T08:25:05.194Z,4.18
2023-03-12T08:27:32.114Z,3.47
2023-03-12T08:29:58.876Z,4.85
2023-03-12T08:32:25.703Z,1.63
2023-03-12T08:34:52.456Z,3.40
2023-03-12T08:37:19.354Z,5.18
2023-03-12T08:39:45.968Z,2.58
2023-03-12T08:42:12.886Z,4.25
2023-03-12T08:44:39.611Z,2.40
2023-03-12T08:47:06.375Z,5.28
2023-03-12T08:49:33.121Z,4.38
2023-03-12T08:52:00.632Z,3.47
2023-03-12T08:54:27.240Z,4.10
2023-03-12T08:56:53.976Z,4.53
2023-03-12T08:59:22.282Z,3.97
2023-03-12T09:01:49.222Z,3.92
2023-03-12T09:04:17.116Z,2.33
2023-03-12T09:06:44.368Z,3.80
2023-03-12T09:09:11.275Z,2.58
2023-03-12T09:11:42.516Z,4.72
2023-03-12T09:19:29.265Z,2.05
2023-03-12T09:21:55.931Z,4.70
2023-03-12T09:24:23.763Z,3.63
2023-03-12T09:26:55.583Z,3.63
2023-03-12T09:29:26.364Z,4.40
2023-03-12T09:31:54.604Z,3.60
2023-03-12T09:34:21.352Z,4.28
2023-03-12T09:36:48.232Z,4.80
2023-03-12T09:39:14.919Z,5.75
2023-03-12T09:41:47.949Z,4.88
2023-03-12T09:44:36.280Z,3.72
2023-03-12T09:47:09.245Z,3.65
2023-03-12T09:49:42.938Z,4.50
2023-03-12T09:52:30.663Z,4.70
2023-03-12T09:55:17.593Z,4.45
2023-03-12T09:57:46.379Z,3.13
2023-03-12T10:00:16.188Z,2.45
2023-03-12T10:03:09.597Z,2.75
2023-03-12T10:06:05.039Z,3.70
2023-03-12T10:08:56.504Z,2.40
2023-03-12T10:11:39.172Z,2.13
2023-03-12T10:14:13.100Z,2.75
2023-03-12T10:17:13.306Z,3.58
2023-03-12T10:20:05.649Z,2.45
2023-03-12T10:22:38.523Z,2.05
2023-03-12T10:25:11.126Z,2.38
2023-03-12T10:27:37.776Z,2.30
2023-03-12T10:30:17.691Z,3.58
2023-03-12T10:32:50.527Z,1.55
2023-03-12T10:35:22.022Z,1.75
2023-03-12T10:37:59.104Z,2.35
2023-03-12T10:40:28.457Z,2.38
2023-03-12T10:42:55.381Z,2.67
2023-03-12T10:45:25.110Z,2.88
2023-03-12T10:48:00.839Z,2.30
2023-03-12T10:50:32.934Z,3.63
2023-03-12T10:53:22.611Z,3.40
2023-03-12T10:56:07.643Z,1.67
2023-03-12T10:58:41.855Z,2.28
2023-03-12T11:01:31.614Z,1.77
2023-03-12T11:04:18.737Z,4.03
2023-03-12T11:07:14.597Z,2.42
2023-03-12T11:09:41.252Z,1.95
2023-03-12T11:12:28.572Z,2.38
2023-03-12T11:14:55.168Z,1.13
2023-03-12T11:17:32.901Z,1.35
2023-03-12T11:19:59.516Z,2.05
2023-03-12T11:22:34.884Z,1.35
2023-03-12T11:25:07.097Z,2.22
2023-03-12T11:27:46.215Z,1.15
2023-03-12T11:30:16.477Z,2.15
2023-03-12T11:35:30.623Z,3.80
2023-03-12T11:38:06.402Z,2.58
2023-03-12T11:40:52.221Z,2.80
2023-03-12T11:43:43.899Z,1.90
2023-03-12T11:46:44.604Z,2.38
2023-03-12T11:49:23.275Z,1.05
2023-03-12T11:52:23.738Z,1.85
2023-03-12T11:55:16.791Z,2.33
2023-03-12T11:57:49.596Z,1.48
2023-03-12T12:00:17.491Z,2.03
2023-03-12T12:03:02.513Z,1.80
2023-03-12T12:05:34.909Z,1.17
2023-03-12T12:08:07.162Z,1.75
2023-03-12T12:10:48.675Z,1.33
2023-03-12T12:13:28.985Z,2.47
2023-03-12T12:16:20.474Z,1.90
2023-03-12T12:18:47.024Z,1.80
2023-03-12T12:21:19.734Z,2.95
2023-03-12T12:24:09.599Z,3.88
2023-03-12T12:26:47.157Z,1.70
2023-03-12T12:29:52.684Z,2.22
2023-03-12T12:32:35.122Z,2.97
2023-03-12T12:35:22.821Z,2.38
2023-03-12T12:38:02.964Z,1.98
2023-03-12T12:40:37.745Z,2.55
2023-03-12T12:43:19.477Z,4.13
2023-03-12T12:45:49.871Z,2.25
2023-03-12T12:48:26.192Z,2.33
2023-03-12T12:50:54.478Z,3.63
2023-03-12T12:53:25.564Z,2.88
2023-03-12T12:56:14.860Z,3.97
2023-03-12T12:59:09.031Z,3.60
2023-03-12T13:01:41.428Z,5.78
2023-03-12T13:04:15.581Z,6.07
2023-03-12T13:07:00.131Z,3.53
2023-03-12T13:09:46.285Z,3.08
2023-03-12T13:12:18.668Z,3.42
2023-03-12T13:14:46.979Z,6.15
2023-03-12T13:17:21.827Z,3.58
2023-03-12T13:20:01.035Z,3.92
2023-03-12T13:22:35.108Z,3.08
2023-03-12T13:25:23.110Z,2.42
2023-03-12T13:27:58.869Z,2.42
2023-03-12T13:30:34.829Z,3.13
2023-03-12T13:33:01.785Z,3.15
2023-03-12T13:35:39.947Z,2.95
2023-03-12T13:38:12.541Z,2.42
2023-03-12T13:40:53.954Z,4.13
2023-03-12T13:43:35.743Z,3.35
2023-03-12T13:46:11.049Z,3.58
2023-03-12T13:48:45.682Z,2.80
2023-03-12T13:51:18.112Z,2.88
2023-03-12T13:53:50.447Z,3.45
2023-03-12T13:56:20.291Z,3.08
2023-03-12T13:59:00.467Z,2.67
2023-03-12T14:01:31.964Z,2.05
2023-03-12T14:04:14.454Z,3.22
2023-03-12T14:06:49.851Z,5.22
2023-03-12T14:09:40.215Z,3.03
2023-03-12T14:12:43.403Z,3.38
2023-03-12T14:15:32.788Z,4.43
2023-03-12T14:18:04.152Z,4.78
2023-03-12T14:20:38.291Z,3.80
2023-03-12T14:23:09.310Z,2.13
2023-03-12T14:25:43.525Z,1.65
2023-03-12T14:28:21.790Z,3.67
2023-03-12T14:31:07.214Z,4.22
2023-03-12T14:33:45.218Z,4.15
2023-03-12T14:36:18.950Z,2.85
2023-03-12T14:38:48.818Z,3.15
2023-03-12T14:41:31.313Z,2.97
2023-03-12T14:44:07.146Z,3.08
2023-03-12T14:46:33.768Z,4.07
2023-03-12T14:49:00.605Z,2.45
2023-03-12T14:51:30.359Z,2.15
2023-03-12T14:54:02.920Z,2.03
2023-03-12T14:56:35.090Z,4.05
2023-03-12T14:59:21.443Z,9.20
2023-03-12T15:01:48.641Z,2.33
2023-03-12T15:04:22.223Z,3.47
2023-03-12T15:07:04.442Z,3.45
2023-03-12T15:09:34.599Z,3.58
2023-03-12T15:12:04.568Z,3.08
2023-03-12T15:14:35.721Z,3.03
2023-03-12T15:17:05.085Z,3.45
2023-03-12T15:19:35.961Z,2.28
2023-03-12T15:22:04.574Z,3.42
2023-03-12T15:24:38.423Z,5.25
2023-03-12T15:27:29.665Z,5.35
2023-03-12T15:29:58.263Z,3.00
2023-03-12T15:32:26.964Z,4.13
2023-03-12T15:34:56.115Z,3.00
2023-03-12T15:37:33.722Z,4.75
2023-03-12T15:40:02.524Z,4.38
2023-03-12T15:42:29.496Z,5.80
2023-03-12T15:45:04.917Z,5.88
2023-03-12T15:47:39.308Z,5.53
2023-03-12T15:50:16.951Z,7.78
2023-03-12T15:52:59.239Z,6.93
2023-03-12T15:55:29.660Z,6.28
2023-03-12T15:57:58.558Z,5.00
2023-03-12T16:00:28.466Z,7.35
2023-03-12T16:03:05.948Z,3.97
2023-03-12T16:05:36.956Z,4.28
2023-03-12T16:08:14.728Z,5.28
2023-03-12T16:10:42.070Z,8.07
2023-03-12T16:13:12.735Z,8.50
2023-03-12T16:18:12.736Z,7.32
2023-03-12T16:20:39.385Z,9.52
2023-03-12T16:23:05.992Z,6.15
2023-03-12T16:25:34.048Z,7.30
2023-03-12T16:28:04.289Z,7.43
2023-03-12T16:30:34.329Z,5.03
2023-03-12T16:33:04.951Z,5.65
2023-03-12T16:35:33.390Z,4.82
2023-03-12T16:38:03.158Z,5.85
2023-03-12T16:40:34.207Z,6.13
2023-03-12T16:43:03.856Z,5.07
2023-03-12T16:45:35.762Z,6.25
2023-03-12T16:48:06.197Z,5.50
2023-03-12T16:50:32.867Z,6.88
2023-03-12T16:53:00.711Z,6.15
2023-03-12T16:55:30.258Z,6.15
2023-03-12T16:58:00.186Z,5.03
2023-03-12T17:00:30.204Z,7.32
2023-03-12T17:02:57.995Z,8.23
2023-03-12T17:05:29.891Z,4.30
2023-03-12T17:07:57.581Z,5.38
2023-03-12T17:10:25.713Z,4.95
2023-03-12T17:12:53.815Z,7.63
2023-03-12T17:15:22.299Z,7.10
2023-03-12T17:17:50.953Z,5.00
2023-03-12T17:20:19.641Z,5.95
2023-03-12T17:22:47.127Z,6.35
2023-03-12T17:25:29.495Z,5.00
2023-03-12T17:27:57.262Z,7.85
2023-03-12T17:30:24.209Z,6.70
2023-03-12T17:32:51.651Z,6.50
2023-03-12T17:35:19.451Z,7.90
2023-03-12T17:37:48.420Z,6.20
2023-03-12T17:40:15.823Z,5.03
2023-03-12T17:42:42.411Z,6.70
2023-03-12T17:45:10.148Z,6.72
2023-03-12T17:47:37.478Z,6.97
2023-03-12T17:50:06.328Z,16.88
2023-03-12T17:52:33.406Z,36.75
2023-03-12T17:55:00.557Z,21.63
2023-03-12T17:57:28.109Z,13.65
2023-03-12T17:59:54.689Z,7.13
2023-03-12T18:02:21.603Z,9.48
2023-03-12T18:04:48.377Z,5.57
2023-03-12T18:07:15.104Z,4.40
2023-03-12T18:09:41.706Z,14.57
2023-03-12T18:12:08.615Z,8.48
2023-03-12T18:14:35.452Z,8.23
2023-03-12T18:17:02.044Z,9.38
2023-03-12T18:19:29.435Z,9.18
2023-03-12T18:21:56.095Z,7.75
2023-03-12T18:24:22.700Z,21.15
2023-03-12T18:26:51.604Z,8.68
2023-03-12T18:29:18.403Z,5.72
2023-03-12T18:31:45.065Z,6.03
2023-03-12T18:34:11.760Z,7.28
2023-03-12T18:36:38.433Z,3.70
2023-03-12T18:39:06.560Z,5.05
2023-03-12T18:41:33.435Z,4.22
2023-03-12T18:44:00.669Z,5.07
2023-03-12T18:46:28.169Z,6.63
2023-03-12T18:48:54.860Z,5.75
2023-03-12T18:51:21.773Z,4.78
2023-03-12T18:53:48.375Z,3.60
2023-03-12T18:56:15.036Z,3.00
2023-03-12T18:58:41.939Z,2.05
2023-03-12T19:01:08.519Z,3.25
2023-03-12T19:03:36.412Z,2.35
2023-03-12T19:06:11.867Z,2.08
2023-03-12T19:08:38.773Z,2.17
2023-03-12T19:11:15.855Z,2.70
2023-03-12T19:13:43.529Z,3.10
2023-03-12T19:16:12.477Z,2.38
2023-03-12T19:18:39.671Z,2.03
2023-03-12T19:21:09.559Z,2.83
2023-03-12T19:23:36.533Z,1.90
2023-03-12T19:26:04.024Z,3.05
2023-03-12T19:28:31.474Z,2.25
2023-03-12T19:31:02.379Z,2.90
2023-03-12T19:33:29.580Z,2.47
2023-03-12T19:35:57.764Z,2.42
2023-03-12T19:38:25.361Z,2.53
2023-03-12T19:40:55.432Z,2.38
2023-03-12T19:43:22.639Z,2.75
2023-03-12T19:45:49.313Z,3.15
2023-03-12T19:48:16.063Z,3.55
2023-03-12T19:50:45.020Z,2.33
2023-03-12T19:53:12.534Z,1.70
2023-03-12T19:55:39.243Z,2.03
2023-03-12T19:58:05.963Z,2.00
2023-03-12T20:00:32.631Z,2.03
2023-03-12T20:02:59.722Z,4.32
2023-03-12T20:05:26.387Z,2.88
2023-03-12T20:07:53.347Z,3.60
2023-03-12T20:10:20.698Z,3.10
2023-03-12T20:12:47.484Z,2.47
2023-03-12T20:15:14.268Z,3.17
2023-03-12T20:17:40.902Z,2.00
2023-03-12T20:20:09.130Z,1.50
2023-03-12T20:22:38.618Z,3.53
2023-03-12T20:25:06.220Z,2.95
2023-03-12T20:27:34.200Z,1.45
2023-03-12T20:30:01.077Z,2.10
2023-03-12T20:32:28.736Z,1.52
2023-03-12T20:34:56.452Z,3.38
2023-03-12T20:37:23.315Z,3.20
2023-03-12T20:39:49.989Z,1.33
2023-03-12T20:42:16.664Z,2.55
2023-03-12T20:44:43.374Z,2.35
2023-03-12T20:47:10.030Z,2.83
2023-03-12T20:49:36.733Z,3.08
2023-03-12T20:52:03.599Z,2.63
2023-03-12T20:54:30.298Z,2.53
2023-03-12T20:56:56.910Z,2.47
2023-03-12T20:59:23.473Z,1.83
2023-03-12T21:01:50.489Z,1.80
2023-03-12T21:04:17.123Z,3.40
2023-03-12T21:06:45.011Z,1.67
2023-03-12T21:09:11.814Z,2.42
2023-03-12T21:11:40.092Z,4.28
2023-03-12T21:14:06.666Z,2.42
2023-03-12T21:16:33.328Z,2.13
2023-03-12T21:18:59.942Z,2.67
2023-03-12T21:21:27.728Z,3.70
2023-03-12T21:23:54.364Z,2.38
2023-03-12T21:26:21.938Z,1.73
2023-03-12T21:28:48.516Z,2.10
2023-03-12T21:31:16.910Z,3.13
2023-03-12T21:33:43.698Z,3.10
2023-03-12T21:36:13.041Z,3.75
2023-03-12T21:38:40.888Z,3.75
2023-03-12T21:41:10.680Z,1.73
2023-03-12T21:43:38.044Z,5.63
2023-03-12T21:46:16.056Z,1.88
2023-03-12T21:48:47.761Z,2.42
2023-03-12T21:51:16.304Z,3.83
2023-03-12T21:53:43.379Z,3.17
2023-03-12T21:56:10.080Z,4.07
2023-03-12T21:58:36.959Z,4.88
2023-03-12T22:01:14.201Z,3.40
2023-03-12T22:03:43.324Z,2.55
2023-03-12T22:06:11.169Z,3.40
2023-03-12T22:08:38.777Z,3.67
2023-03-12T22:11:07.463Z,2.60
2023-03-12T22:13:34.461Z,5.00
2023-03-12T22:16:03.397Z,4.43
2023-03-12T22:18:30.274Z,4.13
2023-03-12T22:21:00.605Z,5.70
2023-03-12T22:23:27.904Z,3.20
2023-03-12T22:25:54.502Z,5.03
2023-03-12T22:28:21.531Z,5.93
2023-03-12T22:30:48.187Z,4.63
2023-03-12T22:33:14.804Z,5.70
2023-03-12T22:35:46.191Z,6.68
2023-03-12T22:38:13.394Z,6.43
2023-03-12T22:40:40.446Z,5.55
2023-03-12T22:43:07.231Z,4.47
2023-03-12T22:45:34.326Z,4.18
2023-03-12T22:48:01.344Z,6.30
2023-03-12T22:50:27.980Z,4.63
2023-03-12T22:52:54.606Z,2.65
2023-03-12T22:55:21.174Z,5.78
2023-03-12T22:57:47.801Z,6.68
2023-03-12T23:00:16.854Z,5.53
2023-03-12T23:02:43.512Z,5.82
2023-03-12T23:05:11.013Z,7.45
2023-03-12T23:07:37.706Z,8.52
2023-03-12T23:10:04.891Z,6.53
2023-03-12T23:12:32.237Z,6.82
2023-03-12T23:14:58.811Z,6.25
2023-03-12T23:17:25.560Z,8.60
2023-03-12T23:19:52.116Z,8.57
2023-03-12T23:22:18.752Z,7.55
2023-03-12T23:24:45.378Z,7.07
2023-03-12T23:27:11.998Z,8.38
2023-03-12T23:29:38.689Z,4.97
2023-03-12T23:32:05.737Z,9.35
2023-03-12T23:34:33.681Z,12.60
2023-03-12T23:37:00.492Z,8.00
2023-03-12T23:39:29.362Z,8.38
2023-03-12T23:41:56.709Z,9.30
2023-03-12T23:44:23.648Z,9.32
2023-03-12T23:46:50.427Z,5.97
2023-03-12T23:49:16.956Z,6.75
2023-03-12T23:51:43.555Z,7.13
2023-03-12T23:54:10.142Z,7.38
2023-03-12T23:56:40.962Z,10.20
2023-03-12T23:59:10.177Z,9.85
